createdAt,value
2022-09-22T00:01:20.165Z,100680.41
2022-09-22T00:03:52.118Z,100666.72
2022-09-22T00:06:19.334Z,100673.34
2022-09-22T00:08:48.827Z,100668.34
2022-09-22T00:11:17.341Z,100677.47
2022-09-22T00:13:46.148Z,100665.81
2022-09-22T00:16:14.200Z,100664.84
2022-09-22T00:18:41.444Z,100663.63
2022-09-22T00:21:10.214Z,100656.34
2022-09-22T00:23:37.222Z,100662.72
2022-09-22T00:26:05.188Z,100665.66
2022-09-22T00:28:32.946Z,100659.97
2022-09-22T00:31:03.743Z,100655.00
2022-09-22T00:33:30.474Z,100658.91
2022-09-22T00:35:58.862Z,100660.88
2022-09-22T00:38:25.706Z,100655.59
2022-09-22T00:40:52.549Z,100651.56
2022-09-22T00:43:26.854Z,100645.47
2022-09-22T00:45:59.520Z,100651.03
2022-09-22T00:48:28.969Z,100648.59
2022-09-22T00:50:56.420Z,100645.53
2022-09-22T00:53:24.383Z,100640.50
2022-09-22T00:55:56.069Z,100643.31
2022-09-22T00:58:26.970Z,100647.22
2022-09-22T01:00:54.289Z,100646.56
2022-09-22T01:03:26.167Z,100641.75
2022-09-22T01:05:57.735Z,100638.53
2022-09-22T01:08:25.206Z,100642.91
2022-09-22T01:10:53.369Z,100640.31
2022-09-22T01:13:40.231Z,100637.91
2022-09-22T01:16:25.861Z,100629.50
2022-09-22T01:19:02.042Z,100633.41
2022-09-22T01:21:33.757Z,100629.38
2022-09-22T01:24:21.082Z,100624.19
2022-09-22T01:26:53.720Z,100616.25
2022-09-22T01:29:36.275Z,100616.72
2022-09-22T01:32:10.454Z,100617.50
2022-09-22T01:34:53.089Z,100612.00
2022-09-22T01:37:19.779Z,100617.16
2022-09-22T01:40:00.114Z,100614.56
2022-09-22T01:42:37.243Z,100613.59
2022-09-22T01:45:07.479Z,100614.06
2022-09-22T01:47:43.372Z,100610.50
2022-09-22T01:50:13.453Z,100615.84
2022-09-22T01:52:41.221Z,100607.69
2022-09-22T01:55:18.320Z,100610.94
2022-09-22T01:58:05.633Z,100609.00
2022-09-22T02:00:34.144Z,100613.19
2022-09-22T02:03:05.245Z,100615.09
2022-09-22T02:05:37.961Z,100602.75
2022-09-22T02:08:10.037Z,100607.03
2022-09-22T02:10:40.393Z,100606.16
2022-09-22T02:13:07.750Z,100600.09
2022-09-22T02:15:53.724Z,100607.13
2022-09-22T02:18:24.959Z,100603.31
2022-09-22T02:20:51.911Z,100603.00
2022-09-22T02:23:18.594Z,100611.28
2022-09-22T02:25:46.018Z,100611.56
2022-09-22T02:28:16.023Z,100623.19
2022-09-22T02:30:54.407Z,100631.22
2022-09-22T02:33:37.545Z,100628.63
2022-09-22T02:36:07.832Z,100624.53
2022-09-22T02:38:52.618Z,100623.44
2022-09-22T02:41:24.875Z,100618.31
2022-09-22T02:43:55.356Z,100613.88
2022-09-22T02:46:27.999Z,100613.78
2022-09-22T02:48:56.719Z,100603.16
2022-09-22T02:51:23.684Z,100603.00
2022-09-22T02:53:50.442Z,100605.91
2022-09-22T02:56:17.555Z,100608.50
2022-09-22T02:58:44.684Z,100603.31
2022-09-22T03:01:11.520Z,100611.28
2022-09-22T03:03:38.566Z,100603.66
2022-09-22T03:06:05.404Z,100599.09
2022-09-22T03:08:33.402Z,100602.69
2022-09-22T03:11:00.617Z,100599.47
2022-09-22T03:13:27.485Z,100614.41
2022-09-22T03:15:54.942Z,100606.81
2022-09-22T03:18:22.069Z,100624.25
2022-09-22T03:20:50.308Z,100620.91
2022-09-22T03:23:19.019Z,100613.69
2022-09-22T03:25:47.779Z,100604.38
2022-09-22T03:28:15.034Z,100605.97
2022-09-22T03:30:41.840Z,100600.97
2022-09-22T03:33:08.968Z,100603.44
2022-09-22T03:35:35.801Z,100595.66
2022-09-22T03:38:02.562Z,100601.03
2022-09-22T03:40:29.655Z,100581.63
2022-09-22T03:42:56.522Z,100582.34
2022-09-22T03:45:23.403Z,100579.50
2022-09-22T03:47:50.440Z,100579.00
2022-09-22T03:50:17.180Z,100578.38
2022-09-22T03:52:45.044Z,100577.13
2022-09-22T03:55:12.365Z,100571.16
2022-09-22T03:57:39.894Z,100577.44
2022-09-22T04:00:07.418Z,100577.78
2022-09-22T04:02:39.230Z,100575.41
2022-09-22T04:05:06.223Z,100571.38
2022-09-22T04:07:32.915Z,100574.28
2022-09-22T04:10:00.065Z,100573.00
2022-09-22T04:12:26.811Z,100558.75
2022-09-22T04:14:53.535Z,100549.75
2022-09-22T04:17:20.835Z,100554.63
2022-09-22T04:19:47.672Z,100549.78
2022-09-22T04:22:14.704Z,100552.56
2022-09-22T04:24:41.780Z,100545.94
2022-09-22T04:27:19.535Z,100546.56
2022-09-22T04:29:47.730Z,100549.03
2022-09-22T04:32:16.415Z,100559.97
2022-09-22T04:34:44.095Z,100559.31
2022-09-22T04:37:11.871Z,100558.53
2022-09-22T04:39:39.008Z,100562.09
2022-09-22T04:42:06.018Z,100569.50
2022-09-22T04:44:35.127Z,100571.91
2022-09-22T04:47:02.412Z,100574.34
2022-09-22T04:49:29.239Z,100574.34
2022-09-22T04:51:56.237Z,100578.38
2022-09-22T04:54:23.059Z,100575.63
2022-09-22T04:56:49.869Z,100580.44
2022-09-22T04:59:16.927Z,100589.31
2022-09-22T05:01:43.949Z,100590.88
2022-09-22T05:04:11.310Z,100592.09
2022-09-22T05:06:38.502Z,100592.19
2022-09-22T05:09:06.401Z,100594.09
2022-09-22T05:11:34.332Z,100592.94
2022-09-22T05:14:02.730Z,100594.72
2022-09-22T05:16:32.310Z,100591.94
2022-09-22T05:18:59.331Z,100595.97
2022-09-22T05:21:26.943Z,100596.09
2022-09-22T05:23:55.281Z,100602.50
2022-09-22T05:27:34.815Z,100612.06
2022-09-22T05:30:01.864Z,100610.03
2022-09-22T05:32:30.725Z,100602.38
2022-09-22T05:34:57.409Z,100612.88
2022-09-22T05:37:24.546Z,100613.84
2022-09-22T05:39:51.258Z,100616.94
2022-09-22T05:42:18.148Z,100614.16
2022-09-22T05:44:46.678Z,100599.53
2022-09-22T05:47:13.448Z,100605.19
2022-09-22T05:49:40.241Z,100613.03
2022-09-22T05:52:07.561Z,100613.47
2022-09-22T05:54:34.322Z,100605.28
2022-09-22T05:57:01.129Z,100622.13
2022-09-22T05:59:28.382Z,100631.34
2022-09-22T06:01:59.495Z,100640.69
2022-09-22T06:04:26.785Z,100637.09
2022-09-22T06:06:53.949Z,100630.72
2022-09-22T06:09:20.651Z,100641.03
2022-09-22T06:11:47.481Z,100628.25
2022-09-22T06:14:15.681Z,100633.22
2022-09-22T06:16:43.322Z,100627.75
2022-09-22T06:19:10.235Z,100631.44
2022-09-22T06:21:37.375Z,100638.28
2022-09-22T06:24:04.618Z,100638.78
2022-09-22T06:26:31.455Z,100638.09
2022-09-22T06:28:58.536Z,100638.22
2022-09-22T06:31:26.452Z,100647.34
2022-09-22T06:33:55.175Z,100656.00
2022-09-22T06:36:42.510Z,100663.19
2022-09-22T06:39:10.538Z,100652.31
2022-09-22T06:41:38.382Z,100661.50
2022-09-22T06:44:06.840Z,100664.75
2022-09-22T06:46:34.264Z,100665.41
2022-09-22T06:49:26.402Z,100664.91
2022-09-22T06:51:53.162Z,100670.94
2022-09-22T06:54:22.311Z,100659.94
2022-09-22T06:56:50.773Z,100654.97
2022-09-22T06:59:19.198Z,100655.88
2022-09-22T07:01:46.713Z,100655.78
2022-09-22T07:04:13.887Z,100655.59
2022-09-22T07:06:41.166Z,100652.03
2022-09-22T07:09:09.386Z,100645.34
2022-09-22T07:11:40.101Z,100647.25
2022-09-22T07:14:08.509Z,100653.50
2022-09-22T07:16:36.567Z,100652.56
2022-09-22T07:19:04.911Z,100643.53
2022-09-22T07:21:36.706Z,100653.66
2022-09-22T07:24:04.913Z,100643.66
2022-09-22T07:26:33.525Z,100647.88
2022-09-22T07:29:01.582Z,100646.56
2022-09-22T07:31:30.525Z,100651.22
2022-09-22T07:34:02.728Z,100651.50
2022-09-22T07:36:34.990Z,100652.13
2022-09-22T07:39:03.534Z,100650.50
2022-09-22T07:41:31.605Z,100646.06
2022-09-22T07:44:24.937Z,100638.75
2022-09-22T07:46:52.048Z,100642.00
2022-09-22T07:49:21.628Z,100639.81
2022-09-22T07:51:49.617Z,100637.53
2022-09-22T07:54:17.911Z,100644.28
2022-09-22T07:56:45.910Z,100638.72
2022-09-22T07:59:13.742Z,100637.69
2022-09-22T08:01:44.917Z,100643.94
2022-09-22T08:04:12.631Z,100646.22
2022-09-22T08:06:39.341Z,100647.34
2022-09-22T08:09:08.316Z,100656.28
2022-09-22T08:11:35.029Z,100653.13
2022-09-22T08:14:03.246Z,100651.94
2022-09-22T08:16:32.441Z,100657.00
2022-09-22T08:19:00.399Z,100658.19
2022-09-22T08:21:28.147Z,100661.38
2022-09-22T08:23:58.757Z,100657.22
2022-09-22T08:26:25.693Z,100643.91
2022-09-22T08:28:53.575Z,100640.19
2022-09-22T08:31:23.039Z,100641.22
2022-09-22T08:33:52.251Z,100635.81
2022-09-22T08:36:19.164Z,100636.94
2022-09-22T08:38:49.565Z,100634.13
2022-09-22T08:41:19.745Z,100635.75
2022-09-22T08:43:57.577Z,100635.25
2022-09-22T08:46:32.360Z,100632.97
2022-09-22T08:49:30.137Z,100633.72
2022-09-22T08:52:00.628Z,100631.53
2022-09-22T08:54:28.636Z,100632.06
2022-09-22T08:56:57.468Z,100630.38
2022-09-22T08:59:27.379Z,100636.56
2022-09-22T09:02:13.570Z,100640.22
2022-09-22T09:04:59.407Z,100628.22
2022-09-22T09:07:58.074Z,100635.88
2022-09-22T09:10:42.547Z,100631.53
2022-09-22T09:13:15.057Z,100623.28
2022-09-22T09:15:43.715Z,100626.72
2022-09-22T09:18:14.931Z,100629.47
2022-09-22T09:20:46.442Z,100626.59
2022-09-22T09:23:18.200Z,100630.53
2022-09-22T09:25:54.369Z,100631.63
2022-09-22T09:28:27.878Z,100635.13
2022-09-22T09:31:00.338Z,100631.47
2022-09-22T09:33:33.882Z,100635.19
2022-09-22T09:36:02.265Z,100628.31
2022-09-22T09:38:35.488Z,100627.47
2022-09-22T09:41:31.371Z,100629.78
2022-09-22T09:44:02.370Z,100621.75
2022-09-22T09:46:48.752Z,100619.44
2022-09-22T09:49:17.616Z,100620.56
2022-09-22T09:51:46.730Z,100622.41
2022-09-22T09:54:17.011Z,100630.63
2022-09-22T09:57:04.663Z,100638.09
2022-09-22T09:59:50.243Z,100633.19
2022-09-22T10:02:27.628Z,100636.91
2022-09-22T10:05:02.607Z,100632.53
2022-09-22T10:07:39.546Z,100639.72
2022-09-22T10:10:23.585Z,100634.78
2022-09-22T10:12:51.658Z,100640.16
2022-09-22T10:15:26.449Z,100643.63
2022-09-22T10:17:54.058Z,100634.00
2022-09-22T10:20:22.607Z,100632.03
2022-09-22T10:22:50.714Z,100624.88
2022-09-22T10:25:25.521Z,100629.22
2022-09-22T10:28:03.633Z,100626.94
2022-09-22T10:30:37.667Z,100617.81
2022-09-22T10:33:06.018Z,100604.78
2022-09-22T10:35:33.889Z,100611.97
2022-09-22T10:38:03.510Z,100614.00
2022-09-22T10:40:31.458Z,100613.66
2022-09-22T10:42:59.907Z,100611.84
2022-09-22T10:45:40.502Z,100615.06
2022-09-22T10:48:13.918Z,100597.00
2022-09-22T10:50:41.592Z,100600.66
2022-09-22T10:53:27.538Z,100598.81
2022-09-22T10:56:00.126Z,100596.75
2022-09-22T10:58:27.483Z,100590.84
2022-09-22T11:01:00.906Z,100586.00
2022-09-22T11:03:28.637Z,100586.13
2022-09-22T11:06:14.108Z,100573.31
2022-09-22T11:09:18.872Z,100573.50
2022-09-22T11:12:12.659Z,100580.47
2022-09-22T11:14:42.961Z,100567.97
2022-09-22T11:17:20.949Z,100571.09
2022-09-22T11:20:04.583Z,100569.81
2022-09-22T11:22:51.186Z,100574.25
2022-09-22T11:25:31.248Z,100568.97
2022-09-22T11:28:04.426Z,100568.97
2022-09-22T11:30:45.666Z,100560.06
2022-09-22T11:33:18.669Z,100551.66
2022-09-22T11:35:57.955Z,100554.72
2022-09-22T11:38:31.154Z,100548.59
2022-09-22T11:41:14.337Z,100547.50
2022-09-22T11:43:59.879Z,100546.25
2022-09-22T11:46:42.643Z,100552.84
2022-09-22T11:49:24.439Z,100559.13
2022-09-22T11:52:19.183Z,100542.78
2022-09-22T11:54:47.076Z,100530.34
2022-09-22T11:57:23.875Z,100531.97
2022-09-22T11:59:57.402Z,100528.75
2022-09-22T12:02:31.305Z,100530.06
2022-09-22T12:05:02.672Z,100525.63
2022-09-22T12:07:33.236Z,100514.31
2022-09-22T12:10:02.975Z,100522.97
2022-09-22T12:12:32.344Z,100520.59
2022-09-22T12:15:02.715Z,100516.78
2022-09-22T12:17:39.148Z,100530.81
2022-09-22T12:20:15.630Z,100518.06
2022-09-22T12:22:42.699Z,100519.94
2022-09-22T12:25:20.762Z,100528.63
2022-09-22T12:27:58.681Z,100530.38
2022-09-22T12:30:25.497Z,100519.56
2022-09-22T12:32:52.295Z,100519.34
2022-09-22T12:35:25.278Z,100518.53
2022-09-22T12:37:55.791Z,100516.28
2022-09-22T12:40:29.926Z,100506.72
2022-09-22T12:42:57.509Z,100503.84
2022-09-22T12:45:38.035Z,100506.63
2022-09-22T12:48:16.361Z,100517.94
2022-09-22T12:50:44.729Z,100517.22
2022-09-22T12:53:23.707Z,100522.53
2022-09-22T12:55:51.827Z,100529.34
2022-09-22T12:58:18.566Z,100530.44
2022-09-22T13:00:45.740Z,100531.03
2022-09-22T13:03:25.075Z,100542.22
2022-09-22T13:05:53.032Z,100530.03
2022-09-22T13:08:22.828Z,100538.03
2022-09-22T13:10:51.174Z,100537.22
2022-09-22T13:13:23.913Z,100532.88
2022-09-22T13:15:54.893Z,100533.06
2022-09-22T13:18:34.453Z,100529.88
2022-09-22T13:21:23.272Z,100517.81
2022-09-22T13:23:59.863Z,100513.84
2022-09-22T13:26:32.627Z,100516.13
2022-09-22T13:29:00.244Z,100508.66
2022-09-22T13:31:27.694Z,100507.72
2022-09-22T13:33:54.664Z,100501.84
2022-09-22T13:36:23.854Z,100506.00
2022-09-22T13:38:55.353Z,100502.38
2022-09-22T13:41:24.250Z,100501.09
2022-09-22T13:43:56.649Z,100497.91
2022-09-22T13:46:29.898Z,100495.84
2022-09-22T13:48:57.859Z,100497.41
2022-09-22T13:51:26.022Z,100494.34
2022-09-22T13:53:55.479Z,100499.84
2022-09-22T13:56:26.422Z,100485.78
2022-09-22T13:58:55.527Z,100484.38
2022-09-22T14:01:24.923Z,100482.56
2022-09-22T14:03:52.556Z,100488.59
2022-09-22T14:06:22.249Z,100484.97
2022-09-22T14:08:53.614Z,100488.44
2022-09-22T14:11:24.746Z,100490.94
2022-09-22T14:13:56.409Z,100487.50
2022-09-22T14:16:44.031Z,100486.16
2022-09-22T14:19:23.251Z,100477.84
2022-09-22T14:21:52.052Z,100484.25
2022-09-22T14:24:19.512Z,100483.72
2022-09-22T14:26:50.954Z,100483.91
2022-09-22T14:29:26.089Z,100485.00
2022-09-22T14:31:56.566Z,100486.31
2022-09-22T14:34:26.134Z,100489.19
2022-09-22T14:36:54.655Z,100483.22
2022-09-22T14:39:26.209Z,100484.31
2022-09-22T14:41:59.176Z,100488.34
2022-09-22T14:44:46.464Z,100477.75
2022-09-22T14:47:27.076Z,100484.72
2022-09-22T14:50:25.040Z,100483.53
2022-09-22T14:52:53.197Z,100481.47
2022-09-22T14:55:26.354Z,100476.25
2022-09-22T14:57:54.933Z,100476.88
2022-09-22T15:00:40.436Z,100466.69
2022-09-22T15:03:16.076Z,100469.13
2022-09-22T15:05:47.027Z,100474.25
2022-09-22T15:08:18.806Z,100470.78
2022-09-22T15:10:56.270Z,100470.03
2022-09-22T15:13:29.755Z,100466.53
2022-09-22T15:15:58.520Z,100465.41
2022-09-22T15:18:30.349Z,100458.25
2022-09-22T15:21:13.956Z,100469.09
2022-09-22T15:23:42.647Z,100474.59
2022-09-22T15:26:14.719Z,100478.31
2022-09-22T15:28:42.151Z,100477.59
2022-09-22T15:31:11.231Z,100486.78
2022-09-22T15:33:39.750Z,100480.94
2022-09-22T15:36:13.018Z,100484.53
2022-09-22T15:38:40.193Z,100490.59
2022-09-22T15:41:10.990Z,100483.88
2022-09-22T15:43:39.495Z,100486.69
2022-09-22T15:46:26.722Z,100485.91
2022-09-22T15:49:10.049Z,100490.56
2022-09-22T15:51:37.597Z,100488.72
2022-09-22T15:54:13.172Z,100490.31
2022-09-22T15:56:42.863Z,100492.47
2022-09-22T15:59:19.043Z,100485.63
2022-09-22T16:02:13.970Z,100491.72
2022-09-22T16:04:41.768Z,100488.94
2022-09-22T16:07:11.126Z,100488.78
2022-09-22T16:09:39.475Z,100493.84
2022-09-22T16:12:12.385Z,100497.88
2022-09-22T16:14:42.377Z,100499.34
2022-09-22T16:17:11.717Z,100499.16
2022-09-22T16:19:39.888Z,100494.78
2022-09-22T16:22:07.035Z,100503.25
2022-09-22T16:24:34.185Z,100495.66
2022-09-22T16:27:07.415Z,100500.72
2022-09-22T16:29:37.570Z,100496.75
2022-09-22T16:32:07.883Z,100502.59
2022-09-22T16:34:37.621Z,100505.00
2022-09-22T16:37:05.281Z,100504.84
2022-09-22T16:39:32.374Z,100498.84
2022-09-22T16:41:59.405Z,100503.06
2022-09-22T16:44:30.087Z,100493.72
2022-09-22T16:46:58.767Z,100501.09
2022-09-22T16:49:25.805Z,100504.34
2022-09-22T16:51:54.404Z,100511.38
2022-09-22T16:54:24.755Z,100510.22
2022-09-22T16:56:53.095Z,100505.56
2022-09-22T16:59:21.326Z,100514.63
2022-09-22T17:01:50.135Z,100517.06
2022-09-22T17:04:20.080Z,100522.84
2022-09-22T17:06:50.603Z,100522.09
2022-09-22T17:09:17.538Z,100521.84
2022-09-22T17:11:45.498Z,100518.28
2022-09-22T17:14:15.531Z,100526.50
2022-09-22T17:16:43.911Z,100539.34
2022-09-22T17:19:19.447Z,100529.72
2022-09-22T17:21:47.826Z,100527.69
2022-09-22T17:24:16.725Z,100530.88
2022-09-22T17:26:48.146Z,100529.72
2022-09-22T17:29:16.147Z,100532.91
2022-09-22T17:31:43.854Z,100536.72
2022-09-22T17:34:12.085Z,100534.50
2022-09-22T17:36:39.941Z,100541.69
2022-09-22T17:39:07.737Z,100541.47
2022-09-22T17:41:34.755Z,100541.47
2022-09-22T17:44:03.348Z,100544.50
2022-09-22T17:46:32.043Z,100543.28
2022-09-22T17:49:19.883Z,100550.06
2022-09-22T17:52:08.197Z,100542.88
2022-09-22T17:54:57.418Z,100543.28
2022-09-22T17:57:31.209Z,100544.66
2022-09-22T17:59:58.767Z,100548.25
2022-09-22T18:02:28.688Z,100559.66
2022-09-22T18:04:55.791Z,100553.88
2022-09-22T18:07:23.642Z,100552.47
2022-09-22T18:09:51.392Z,100552.63
2022-09-22T18:12:23.080Z,100550.81
2022-09-22T18:14:53.279Z,100563.44
2022-09-22T18:17:21.558Z,100558.03
2022-09-22T18:19:49.658Z,100552.00
2022-09-22T18:22:21.116Z,100561.19
2022-09-22T18:24:49.666Z,100563.56
2022-09-22T18:27:19.882Z,100564.16
2022-09-22T18:29:50.114Z,100564.34
2022-09-22T18:32:20.149Z,100566.97
2022-09-22T18:34:47.690Z,100565.50
2022-09-22T18:37:16.299Z,100578.69
2022-09-22T18:39:46.676Z,100581.53
2022-09-22T18:42:13.734Z,100577.69
2022-09-22T18:44:41.942Z,100556.00
2022-09-22T18:47:13.152Z,100572.63
2022-09-22T18:49:41.510Z,100570.78
2022-09-22T18:52:08.883Z,100581.78
2022-09-22T18:54:39.419Z,100580.13
2022-09-22T18:57:07.883Z,100570.50
2022-09-22T18:59:39.038Z,100578.88
2022-09-22T19:02:10.661Z,100576.03
2022-09-22T19:05:04.101Z,100571.22
2022-09-22T19:08:21.010Z,100571.22
2022-09-22T19:11:03.699Z,100568.00
2022-09-22T19:14:09.896Z,100571.59
2022-09-22T19:17:23.899Z,100581.56
2022-09-22T19:21:45.420Z,100569.63
2022-09-22T19:33:33.167Z,100584.19
2022-09-22T19:40:02.094Z,100591.72
2022-09-22T20:01:33.611Z,100592.28
2022-09-22T20:04:01.055Z,100596.22
2022-09-22T20:06:27.946Z,100589.00
2022-09-22T20:09:02.901Z,100591.78
2022-09-22T20:11:34.175Z,100594.56
2022-09-22T20:14:19.946Z,100604.13
2022-09-22T20:16:48.037Z,100597.38
2022-09-22T20:19:14.988Z,100589.56
2022-09-22T20:21:45.611Z,100585.78
2022-09-22T20:24:17.104Z,100596.34
2022-09-22T20:26:45.108Z,100594.91
2022-09-22T20:29:13.248Z,100590.91
2022-09-22T20:31:40.581Z,100598.69
2022-09-22T20:34:07.655Z,100596.09
2022-09-22T20:36:37.052Z,100596.44
2022-09-22T20:39:05.714Z,100596.03
2022-09-22T20:41:32.711Z,100592.59
2022-09-22T20:43:59.659Z,100599.59
2022-09-22T20:46:26.974Z,100599.16
2022-09-22T20:48:56.788Z,100605.88
2022-09-22T20:51:23.686Z,100608.22
2022-09-22T20:53:50.858Z,100606.19
2022-09-22T20:56:18.007Z,100607.31
2022-09-22T20:58:45.619Z,100601.69
2022-09-22T21:01:14.165Z,100608.25
2022-09-22T21:03:41.261Z,100605.97
2022-09-22T21:06:09.227Z,100605.16
2022-09-22T21:08:59.194Z,100611.34
2022-09-22T21:14:18.764Z,100605.56
2022-09-22T21:16:46.141Z,100609.94
2022-09-22T21:19:18.134Z,100608.34
2022-09-22T21:21:46.131Z,100600.72
2022-09-22T21:24:12.943Z,100599.66
2022-09-22T21:26:39.726Z,100605.38
2022-09-22T21:29:07.050Z,100605.75
2022-09-22T21:31:34.918Z,100595.47
2022-09-22T21:34:17.282Z,100590.63
2022-09-22T21:36:44.040Z,100595.97
2022-09-22T21:39:12.120Z,100597.16
2022-09-22T21:41:38.869Z,100592.31
2022-09-22T21:44:05.965Z,100596.22
2022-09-22T21:46:34.857Z,100595.91
2022-09-22T21:49:02.718Z,100590.09
2022-09-22T21:51:30.247Z,100578.28
2022-09-22T21:53:56.975Z,100580.88
2022-09-22T21:56:24.963Z,100585.44
2022-09-22T21:58:52.919Z,100578.63
2022-09-22T22:01:38.910Z,100578.63
2022-09-22T22:04:24.281Z,100582.19
2022-09-22T22:07:12.009Z,100589.81
2022-09-22T22:09:38.744Z,100576.03
2022-09-22T22:12:25.457Z,100578.81
2022-09-22T22:15:10.743Z,100584.00
2022-09-22T22:17:56.354Z,100573.63
2022-09-22T22:20:41.794Z,100572.81
2022-09-22T22:23:29.015Z,100574.16
2022-09-22T22:26:16.324Z,100570.69
2022-09-22T22:29:02.003Z,100562.09
2022-09-22T22:31:49.200Z,100564.22
2022-09-22T22:34:34.310Z,100563.56
2022-09-22T22:37:19.952Z,100565.19
2022-09-22T22:40:05.570Z,100556.78
2022-09-22T22:42:51.365Z,100559.56
2022-09-22T22:45:36.370Z,100554.56
2022-09-22T22:48:21.702Z,100554.56
2022-09-22T22:51:31.860Z,100548.41
2022-09-22T22:54:17.412Z,100551.34
2022-09-22T22:57:02.614Z,100550.69
2022-09-22T22:59:48.714Z,100549.88
2022-09-22T23:02:33.872Z,100547.50
2022-09-22T23:05:21.514Z,100545.88
2022-09-22T23:08:10.469Z,100547.22
2022-09-22T23:11:00.764Z,100549.34
2022-09-22T23:13:50.892Z,100552.13
2022-09-22T23:16:37.354Z,100538.53
2022-09-22T23:19:22.530Z,100542.09
2022-09-22T23:22:07.715Z,100533.69
2022-09-22T23:24:53.977Z,100538.78
2022-09-22T23:27:21.066Z,100534.75
2022-09-22T23:29:47.750Z,100536.72
2022-09-22T23:32:15.150Z,100528.16
2022-09-22T23:34:41.878Z,100530.25
2022-09-22T23:37:09.258Z,100529.44
2022-09-22T23:39:36.021Z,100525.06
2022-09-22T23:42:02.613Z,100529.63
2022-09-22T23:44:29.826Z,100517.06
2022-09-22T23:46:56.417Z,100514.63
2022-09-22T23:49:23.064Z,100521.78
2022-09-22T23:51:49.656Z,100512.53
2022-09-22T23:54:16.434Z,100517.72
2022-09-22T23:56:43.201Z,100509.94
2022-09-22T23:59:09.897Z,100509.34
